Time;durP1;ratioP1;P1;durP2;ratioP2;P2;SDS_P1;SDS_P2;PMS_P1;PMS_P2;Temp;Humidity;BMP_temperature;BMP_pressure;BME280_temperature;BME280_humidity;BME280_pressure;Samples;Min_cycle;Max_cycle;Signal;HPM_P1;HPM_P2
2023/10/14 00:01:15;;;;;;;16.33;4.25;;;20.50;99.90;;;;;;5114041;28;20440;-66
2023/10/14 00:03:43;;;;;;;17.77;3.97;;;20.70;99.90;;;;;;5113585;28;20059;-65
2023/10/14 00:06:12;;;;;;;14.25;3.45;;;20.80;99.90;;;;;;5112990;28;20467;-64
2023/10/14 00:08:48;;;;;;;15.88;3.92;;;20.90;99.90;;;;;;5113229;28;20455;-64
2023/10/14 00:11:15;;;;;;;12.30;3.33;;;20.90;99.90;;;;;;5113454;28;20033;-65
2023/10/14 00:13:54;;;;;;;14.43;3.60;;;20.80;99.90;;;;;;5113581;28;20050;-64
2023/10/14 00:16:35;;;;;;;14.55;3.63;;;20.90;99.90;;;;;;5113629;28;20460;-65
2023/10/14 00:19:04;;;;;;;14.63;3.33;;;20.80;99.90;;;;;;5113116;28;20030;-65
2023/10/14 00:21:36;;;;;;;14.27;4.05;;;20.70;99.90;;;;;;5113093;28;20493;-65
2023/10/14 00:24:04;;;;;;;14.30;3.50;;;20.60;99.90;;;;;;5112915;28;20115;-65
2023/10/14 00:26:31;;;;;;;13.48;3.30;;;20.70;99.90;;;;;;5112330;28;20028;-65
2023/10/14 00:31:41;;;;;;;18.55;4.20;;;20.60;99.90;;;;;;5113007;28;20464;-65
2023/10/14 00:34:07;;;;;;;16.33;3.65;;;20.60;99.90;;;;;;5112990;28;20070;-64
2023/10/14 00:36:34;;;;;;;15.95;4.03;;;20.60;99.90;;;;;;5112686;28;20039;-65
2023/10/14 00:39:15;;;;;;;15.43;3.58;;;20.40;99.90;;;;;;5113060;28;20058;-65
2023/10/14 00:41:49;;;;;;;15.07;4.20;;;20.30;99.90;;;;;;5113103;28;20031;-65
2023/10/14 00:44:16;;;;;;;16.40;4.50;;;20.10;99.90;;;;;;5112864;28;20024;-65
2023/10/14 00:46:43;;;;;;;15.70;3.40;;;20.00;99.90;;;;;;5113030;28;20093;-65
2023/10/14 00:49:11;;;;;;;15.95;4.03;;;19.90;99.90;;;;;;5112355;28;20035;-65
2023/10/14 00:51:42;;;;;;;19.50;4.38;;;19.90;99.90;;;;;;5112699;28;20016;-65
2023/10/14 00:54:25;;;;;;;17.67;4.43;;;19.80;99.90;;;;;;5112658;28;20035;-65
2023/10/14 00:56:51;;;;;;;15.63;3.75;;;19.70;99.90;;;;;;5112819;28;20076;-65
2023/10/14 00:59:18;;;;;;;19.20;4.65;;;19.80;99.90;;;;;;5112586;28;20409;-65
2023/10/14 01:02:26;;;;;;;17.02;4.38;;;19.70;99.90;;;;;;5112494;28;20482;-65
2023/10/14 01:04:36;;;;;;;16.60;3.75;;;19.70;99.90;;;;;;5109731;28;20059;-65
2023/10/14 01:07:05;;;;;;;12.70;3.40;;;19.70;99.90;;;;;;5112229;28;20024;-66
2023/10/14 01:12:11;;;;;;;16.90;4.05;;;19.70;99.90;;;;;;5112637;28;20023;-65
2023/10/14 01:14:41;;;;;;;14.98;3.70;;;19.60;99.90;;;;;;5112177;28;20046;-65
2023/10/14 01:17:09;;;;;;;17.55;4.10;;;19.60;99.90;;;;;;5111884;28;20446;-64
2023/10/14 01:19:35;;;;;;;14.35;3.47;;;19.60;99.90;;;;;;5112440;28;20023;-65
2023/10/14 01:22:01;;;;;;;14.40;3.72;;;19.60;99.90;;;;;;5112270;28;20069;-65
2023/10/14 01:24:31;;;;;;;15.43;3.20;;;19.60;99.90;;;;;;5111917;28;20051;-65
2023/10/14 01:27:04;;;;;;;14.02;3.22;;;19.60;99.90;;;;;;5111968;28;20074;-65
2023/10/14 01:29:39;;;;;;;13.40;3.10;;;19.60;99.90;;;;;;5111933;28;20035;-66
2023/10/14 01:32:23;;;;;;;10.70;2.70;;;19.60;99.90;;;;;;5111278;28;20268;-65
2023/10/14 01:34:55;;;;;;;9.93;2.78;;;19.60;99.90;;;;;;5111768;28;20497;-65
2023/10/14 01:37:22;;;;;;;12.13;3.28;;;19.80;99.90;;;;;;5112278;28;20031;-65
2023/10/14 01:39:57;;;;;;;10.30;3.22;;;20.00;99.90;;;;;;5111819;28;20126;-65
2023/10/14 01:42:23;;;;;;;10.23;3.20;;;20.10;99.90;;;;;;5111731;28;20027;-65
2023/10/14 01:44:53;;;;;;;10.90;3.20;;;20.20;99.90;;;;;;5111454;28;20028;-65
2023/10/14 01:47:21;;;;;;;13.43;3.17;;;20.20;99.90;;;;;;5109991;28;20506;-65
2023/10/14 01:49:47;;;;;;;10.80;2.92;;;20.30;99.90;;;;;;5111644;28;20110;-65
2023/10/14 01:52:19;;;;;;;12.07;3.08;;;20.30;99.90;;;;;;5111516;28;20584;-65
2023/10/14 01:54:45;;;;;;;11.27;2.85;;;20.30;99.90;;;;;;5111998;28;20049;-65
2023/10/14 01:57:16;;;;;;;13.38;3.33;;;20.30;99.90;;;;;;5111437;28;20028;-65
2023/10/14 01:59:43;;;;;;;13.23;2.92;;;20.40;99.90;;;;;;5111139;28;20016;-65
2023/10/14 02:02:09;;;;;;;13.32;3.20;;;20.50;99.90;;;;;;5111091;28;20034;-65
2023/10/14 02:04:36;;;;;;;12.52;2.83;;;20.50;99.90;;;;;;5111907;28;20379;-65
2023/10/14 02:07:21;;;;;;;14.80;3.25;;;20.40;99.90;;;;;;5111402;28;20039;-65
2023/10/14 02:09:48;;;;;;;16.73;3.83;;;20.40;99.90;;;;;;5111344;28;20026;-65
2023/10/14 02:12:15;;;;;;;14.88;3.25;;;20.40;99.90;;;;;;5111580;28;20084;-66
2023/10/14 02:14:44;;;;;;;11.45;3.15;;;20.40;99.90;;;;;;5111845;28;20102;-66
2023/10/14 02:17:11;;;;;;;14.48;3.38;;;20.30;99.90;;;;;;5111059;28;20401;-66
2023/10/14 02:19:36;;;;;;;11.13;2.90;;;20.00;99.90;;;;;;5111350;28;20508;-65
2023/10/14 02:22:11;;;;;;;11.93;3.13;;;19.90;99.90;;;;;;5111394;28;20015;-66
2023/10/14 02:24:37;;;;;;;11.60;2.75;;;19.90;99.90;;;;;;5111250;28;20081;-65
2023/10/14 02:27:11;;;;;;;12.00;2.97;;;19.80;99.90;;;;;;5111091;28;20027;-65
2023/10/14 02:29:42;;;;;;;11.23;2.85;;;19.80;99.90;;;;;;5110854;28;20052;-65
2023/10/14 02:32:11;;;;;;;12.50;3.08;;;19.70;99.90;;;;;;5111214;28;20031;-65
2023/10/14 02:34:40;;;;;;;10.38;2.80;;;19.60;99.90;;;;;;5111645;28;20028;-66
2023/10/14 02:37:07;;;;;;;12.23;2.70;;;19.70;99.90;;;;;;5111132;28;20106;-65
2023/10/14 02:39:33;;;;;;;14.07;3.28;;;19.60;99.90;;;;;;5110969;28;20423;-65
2023/10/14 02:41:59;;;;;;;13.32;3.17;;;19.70;99.90;;;;;;5111187;28;20031;-65
2023/10/14 02:44:31;;;;;;;11.82;2.80;;;19.80;99.90;;;;;;5110809;28;20027;-65
2023/10/14 02:47:04;;;;;;;11.35;3.10;;;19.80;99.90;;;;;;5111330;28;20035;-65
2023/10/14 02:49:38;;;;;;;13.27;3.60;;;19.60;99.90;;;;;;5111021;28;20102;-65
2023/10/14 02:52:11;;;;;;;11.73;2.85;;;19.60;99.90;;;;;;5115445;28;20084;-66
2023/10/14 02:54:44;;;;;;;15.88;3.03;;;19.60;99.90;;;;;;5114865;28;20031;-65
2023/10/14 02:57:26;;;;;;;9.80;2.73;;;19.60;99.90;;;;;;5114564;28;20102;-65
2023/10/14 02:59:57;;;;;;;11.52;2.50;;;19.60;99.90;;;;;;5114442;28;20049;-65
2023/10/14 03:02:25;;;;;;;14.05;2.45;;;19.60;99.90;;;;;;5114800;28;20485;-66
2023/10/14 03:07:46;;;;;;;8.65;2.13;;;19.50;99.90;;;;;;5115058;28;20031;-66
2023/10/14 03:10:19;;;;;;;9.85;2.40;;;19.50;99.90;;;;;;5114006;28;20031;-65
2023/10/14 03:12:49;;;;;;;9.90;2.35;;;19.70;99.90;;;;;;5114588;28;20559;-65
2023/10/14 03:15:20;;;;;;;8.70;2.50;;;19.80;99.90;;;;;;5114181;28;20054;-65
2023/10/14 03:17:56;;;;;;;6.72;2.25;;;19.90;99.90;;;;;;5114542;28;20020;-65
2023/10/14 03:23:18;;;;;;;7.90;2.33;;;20.00;99.90;;;;;;5114800;28;20650;-65
2023/10/14 03:25:46;;;;;;;8.52;2.17;;;20.00;99.90;;;;;;5114548;28;20039;-65
2023/10/14 03:30:40;;;;;;;9.63;2.90;;;20.20;99.90;;;;;;5114857;28;20016;-65
2023/10/14 03:33:10;;;;;;;9.30;2.50;;;20.20;99.90;;;;;;5114492;28;20023;-66
2023/10/14 03:35:43;;;;;;;9.30;2.80;;;20.20;99.90;;;;;;5114323;28;20498;-66
2023/10/14 03:38:33;;;;;;;9.45;2.22;;;20.20;99.90;;;;;;5114138;28;20076;-66
2023/10/14 03:41:18;;;;;;;7.97;2.10;;;20.10;99.90;;;;;;5114220;28;20077;-66
2023/10/14 03:46:42;;;;;;;7.68;2.20;;;20.20;99.90;;;;;;5113780;28;20120;-66
2023/10/14 03:49:25;;;;;;;11.15;2.60;;;20.00;99.90;;;;;;5114263;28;20043;-66
2023/10/14 03:51:56;;;;;;;10.17;2.30;;;19.90;99.90;;;;;;5113954;28;20016;-66
2023/10/14 03:54:30;;;;;;;7.63;2.28;;;19.80;99.90;;;;;;5113677;28;20058;-66
2023/10/14 03:57:03;;;;;;;9.65;2.45;;;19.80;99.90;;;;;;5113225;28;20034;-65
2023/10/14 03:59:33;;;;;;;9.40;2.20;;;19.70;99.90;;;;;;5114255;28;20032;-65
2023/10/14 04:02:05;;;;;;;10.55;2.60;;;19.60;99.90;;;;;;5113752;28;20034;-66
2023/10/14 04:04:31;;;;;;;10.05;2.33;;;19.50;99.90;;;;;;5113663;28;20035;-66
2023/10/14 04:09:40;;;;;;;7.03;2.20;;;19.60;99.90;;;;;;5113576;28;20032;-66
2023/10/14 04:12:30;;;;;;;7.80;2.20;;;19.50;99.90;;;;;;5113171;28;20028;-66
2023/10/14 04:14:54;;;;;;;11.70;2.50;;;19.60;99.90;;;;;;5112837;28;20408;-66
2023/10/14 04:17:22;;;;;;;8.32;2.47;;;19.40;99.90;;;;;;5113361;28;20114;-66
2023/10/14 04:19:53;;;;;;;9.07;2.17;;;19.40;99.90;;;;;;5113757;28;20611;-66
2023/10/14 04:22:38;;;;;;;7.25;2.10;;;19.30;99.90;;;;;;5112993;28;20035;-66
2023/10/14 04:28:25;;;;;;;4.25;1.75;;;19.20;99.90;;;;;;5050217;28;20440;-65
2023/10/14 04:30:51;;;;;;;6.28;2.22;;;19.20;99.90;;;;;;5049936;28;20048;-66
2023/10/14 04:33:21;;;;;;;8.32;2.08;;;19.20;99.90;;;;;;5050564;28;20183;-66
2023/10/14 04:38:38;;;;;;;6.57;1.80;;;19.30;99.90;;;;;;5051196;28;20021;-66
2023/10/14 04:41:12;;;;;;;6.82;2.10;;;19.20;99.90;;;;;;5069737;28;20286;-65
2023/10/14 04:43:59;;;;;;;7.53;1.80;;;19.20;99.90;;;;;;5070396;28;20048;-65
2023/10/14 04:46:32;;;;;;;9.10;2.35;;;19.20;99.90;;;;;;5069534;28;20218;-66
2023/10/14 04:48:59;;;;;;;7.28;1.80;;;19.40;99.90;;;;;;5070320;28;20529;-66
2023/10/14 04:51:34;;;;;;;7.63;1.80;;;19.50;99.90;;;;;;5069928;28;20123;-65
2023/10/14 04:54:00;;;;;;;7.40;2.00;;;19.60;99.90;;;;;;5069731;28;20028;-65
2023/10/14 04:56:32;;;;;;;7.75;1.83;;;19.70;99.90;;;;;;5069845;28;20074;-66
2023/10/14 04:58:59;;;;;;;6.57;1.60;;;19.70;99.90;;;;;;5091662;28;20046;-66
2023/10/14 05:01:24;;;;;;;6.07;1.77;;;19.80;99.90;;;;;;5112960;28;20028;-66
2023/10/14 05:03:57;;;;;;;8.57;2.15;;;19.80;99.90;;;;;;5112471;28;20383;-66
2023/10/14 05:06:40;;;;;;;8.60;2.13;;;19.90;99.90;;;;;;5112374;28;20024;-66
2023/10/14 05:09:11;;;;;;;8.32;2.20;;;19.90;99.90;;;;;;5112013;28;20039;-66
2023/10/14 05:11:37;;;;;;;7.60;1.95;;;19.90;99.90;;;;;;5112566;28;20100;-65
2023/10/14 05:14:09;;;;;;;8.43;2.00;;;19.80;99.90;;;;;;5111712;28;20549;-66
2023/10/14 05:19:23;;;;;;;5.68;1.80;;;19.90;99.90;;;;;;5112339;28;20051;-66
2023/10/14 05:21:56;;;;;;;5.93;1.88;;;19.80;99.90;;;;;;5111915;28;20106;-66
2023/10/14 05:24:31;;;;;;;7.53;1.85;;;19.70;99.90;;;;;;5111575;28;20495;-66
2023/10/14 05:27:00;;;;;;;9.15;2.30;;;19.50;99.90;;;;;;5111816;28;20524;-66
2023/10/14 05:29:29;;;;;;;9.02;1.92;;;19.40;99.90;;;;;;5111763;28;20105;-66
2023/10/14 05:32:10;;;;;;;7.45;2.05;;;19.30;99.90;;;;;;5111987;28;20027;-66
2023/10/14 05:34:37;;;;;;;6.82;2.00;;;19.30;99.90;;;;;;5111993;28;20024;-67
2023/10/14 05:37:07;;;;;;;8.40;2.13;;;19.20;99.90;;;;;;5111677;28;20024;-66
2023/10/14 05:39:37;;;;;;;8.45;2.00;;;19.10;99.90;;;;;;5111466;28;20028;-66
2023/10/14 05:42:13;;;;;;;8.73;2.53;;;19.00;99.90;;;;;;5111987;28;20037;-66
2023/10/14 05:44:46;;;;;;;8.98;2.40;;;19.00;99.90;;;;;;5111707;28;20398;-65
2023/10/14 05:47:13;;;;;;;8.10;2.10;;;19.00;99.90;;;;;;5111839;28;20035;-66
2023/10/14 05:49:38;;;;;;;7.32;2.22;;;18.90;99.90;;;;;;5111584;28;20031;-66
2023/10/14 05:52:04;;;;;;;7.07;2.03;;;18.90;99.90;;;;;;5111602;28;20038;-66
2023/10/14 05:54:30;;;;;;;7.65;2.47;;;18.90;99.90;;;;;;5111326;28;20027;-66
2023/10/14 05:56:56;;;;;;;7.55;2.28;;;18.80;99.90;;;;;;5111932;28;20019;-66
2023/10/14 05:59:21;;;;;;;8.23;1.90;;;18.80;99.90;;;;;;5111736;28;20023;-65
2023/10/14 06:01:48;;;;;;;8.52;2.60;;;18.90;99.90;;;;;;5111662;28;20028;-66
2023/10/14 06:04:14;;;;;;;8.63;2.40;;;18.80;99.90;;;;;;5111480;28;20560;-64
2023/10/14 06:06:43;;;;;;;8.57;6.25;;;18.80;99.90;;;;;;5111689;28;20019;-63
2023/10/14 06:09:09;;;;;;;8.55;2.85;;;18.90;99.90;;;;;;5111344;28;20059;-63
2023/10/14 06:11:36;;;;;;;9.48;3.67;;;18.90;99.90;;;;;;5111439;28;20024;-63
2023/10/14 06:14:05;;;;;;;7.15;2.47;;;19.00;99.90;;;;;;5093219;28;20107;-64
2023/10/14 06:16:31;;;;;;;7.35;2.95;;;19.00;99.90;;;;;;5111542;28;20028;-64
2023/10/14 06:18:59;;;;;;;10.93;2.38;;;19.00;99.90;;;;;;5111315;28;20016;-64
2023/10/14 06:21:27;;;;;;;6.40;2.15;;;19.00;99.90;;;;;;5111414;28;20085;-64
2023/10/14 06:23:55;;;;;;;6.65;2.25;;;19.20;99.90;;;;;;5111434;28;20023;-63
2023/10/14 06:26:22;;;;;;;7.82;2.13;;;19.50;99.90;;;;;;5114652;28;20093;-63
2023/10/14 06:28:49;;;;;;;6.40;1.90;;;19.50;99.90;;;;;;5115306;28;20123;-63
2023/10/14 06:31:18;;;;;;;7.07;2.22;;;19.50;99.90;;;;;;5115425;28;20034;-63
2023/10/14 06:33:44;;;;;;;6.78;2.03;;;19.60;99.90;;;;;;5115597;28;20413;-64
2023/10/14 06:36:14;;;;;;;6.53;2.13;;;19.80;99.90;;;;;;5114797;28;20055;-64
2023/10/14 06:38:46;;;;;;;6.22;2.10;;;19.80;99.90;;;;;;5115356;28;20444;-64
2023/10/14 06:41:13;;;;;;;6.90;2.03;;;19.80;99.90;;;;;;5115249;28;20046;-64
2023/10/14 06:43:39;;;;;;;9.13;1.98;;;19.80;99.90;;;;;;5115500;28;20097;-63
2023/10/14 06:46:05;;;;;;;8.02;2.13;;;19.90;99.90;;;;;;5115067;28;20063;-64
2023/10/14 06:48:32;;;;;;;9.30;1.95;;;19.80;99.90;;;;;;5114542;28;20031;-65
2023/10/14 06:50:59;;;;;;;8.07;2.20;;;19.70;99.90;;;;;;5114939;28;20438;-65
2023/10/14 06:53:28;;;;;;;6.90;2.03;;;19.70;99.90;;;;;;5115281;28;20039;-65
2023/10/14 06:55:54;;;;;;;5.18;1.50;;;19.80;99.90;;;;;;5114867;28;20035;-65
2023/10/14 06:58:21;;;;;;;7.57;2.20;;;19.60;99.90;;;;;;5114989;28;20031;-65
2023/10/14 07:00:51;;;;;;;7.47;2.00;;;19.50;99.90;;;;;;5115364;28;20036;-65
2023/10/14 07:03:17;;;;;;;8.88;1.90;;;19.30;99.90;;;;;;5114865;28;20118;-64
2023/10/14 07:05:56;;;;;;;7.47;1.88;;;19.20;99.90;;;;;;5114367;28;20149;-66
2023/10/14 07:08:29;;;;;;;5.57;2.00;;;19.10;99.90;;;;;;5114610;28;20586;-65
2023/10/14 07:10:55;;;;;;;9.90;2.27;;;18.90;99.90;;;;;;5114718;28;20035;-65
2023/10/14 07:13:22;;;;;;;5.05;1.77;;;18.90;99.90;;;;;;5114856;28;20261;-65
2023/10/14 07:15:49;;;;;;;9.45;2.17;;;18.80;99.90;;;;;;5114653;28;20011;-65
2023/10/14 07:18:22;;;;;;;7.88;2.13;;;18.80;99.90;;;;;;5114462;28;20401;-65
2023/10/14 07:20:59;;;;;;;8.30;2.40;;;18.70;99.90;;;;;;5114312;28;20082;-65
2023/10/14 07:23:26;;;;;;;8.50;2.42;;;18.70;99.90;;;;;;5114599;28;20455;-65
2023/10/14 07:25:52;;;;;;;9.50;2.10;;;18.60;99.90;;;;;;5114709;28;20065;-65
2023/10/14 07:28:18;;;;;;;7.03;2.20;;;18.60;99.90;;;;;;5113671;28;20088;-65
2023/10/14 07:30:48;;;;;;;9.50;2.28;;;18.60;99.90;;;;;;5113230;28;20020;-65
2023/10/14 07:33:14;;;;;;;10.00;2.50;;;18.70;99.90;;;;;;5113317;28;20499;-65
2023/10/14 07:35:40;;;;;;;7.18;2.60;;;18.70;99.90;;;;;;5112125;28;20202;-66
2023/10/14 07:38:06;;;;;;;7.32;2.15;;;18.70;99.90;;;;;;5113127;28;20020;-65
2023/10/14 07:40:33;;;;;;;9.00;2.47;;;18.80;99.90;;;;;;5113505;28;20577;-65
2023/10/14 07:43:10;;;;;;;7.55;2.30;;;18.90;99.90;;;;;;5095098;28;20061;-65
2023/10/14 07:45:42;;;;;;;7.10;2.10;;;18.90;99.90;;;;;;5112992;28;20028;-65
2023/10/14 07:48:08;;;;;;;10.07;2.30;;;19.00;99.90;;;;;;5112874;28;20047;-65
2023/10/14 07:50:39;;;;;;;7.57;1.90;;;19.00;99.90;;;;;;5112764;28;20024;-65
2023/10/14 07:53:12;;;;;;;9.88;2.38;;;19.00;99.90;;;;;;5112859;28;20023;-65
2023/10/14 07:55:43;;;;;;;6.60;1.88;;;19.00;99.90;;;;;;5112789;28;20057;-65
2023/10/14 07:58:13;;;;;;;6.15;1.92;;;19.20;99.90;;;;;;5113177;28;20362;-64
2023/10/14 08:00:40;;;;;;;8.35;2.20;;;19.40;99.90;;;;;;5112607;28;20024;-64
2023/10/14 08:03:09;;;;;;;6.80;2.17;;;19.60;99.90;;;;;;5112456;28;20031;-65
2023/10/14 08:05:38;;;;;;;7.55;2.40;;;19.70;99.90;;;;;;5112939;28;20032;-65
2023/10/14 08:08:09;;;;;;;7.70;1.90;;;19.70;99.90;;;;;;5112644;28;20047;-65
2023/10/14 08:10:42;;;;;;;10.00;2.25;;;19.80;99.90;;;;;;5112513;28;20080;-66
2023/10/14 08:13:09;;;;;;;7.05;2.20;;;19.90;99.90;;;;;;5112442;28;20061;-65
2023/10/14 08:15:35;;;;;;;7.18;2.20;;;20.00;99.90;;;;;;5112637;28;20502;-65
2023/10/14 08:18:04;;;;;;;6.00;1.90;;;20.00;99.90;;;;;;5112488;28;20440;-65
2023/10/14 08:20:34;;;;;;;7.97;2.00;;;20.00;99.90;;;;;;5112404;28;20448;-65
2023/10/14 08:23:00;;;;;;;6.90;2.00;;;20.00;99.90;;;;;;5112647;28;20394;-65
2023/10/14 08:25:28;;;;;;;5.80;1.80;;;20.10;99.90;;;;;;5112527;28;20023;-65
2023/10/14 08:27:54;;;;;;;6.57;2.13;;;20.10;99.90;;;;;;5066316;28;1300460;-65
2023/10/14 08:30:24;;;;;;;6.90;1.70;;;20.00;99.90;;;;;;5113073;28;20096;-65
2023/10/14 08:32:52;;;;;;;8.50;2.42;;;19.90;99.90;;;;;;5112880;28;20561;-65
2023/10/14 08:35:19;;;;;;;7.05;1.85;;;19.80;99.90;;;;;;5113556;28;20092;-65
2023/10/14 08:37:52;;;;;;;6.88;2.00;;;19.70;99.90;;;;;;5113029;28;20059;-65
2023/10/14 08:40:22;;;;;;;8.43;2.03;;;19.50;99.90;;;;;;5113070;28;20150;-65
2023/10/14 08:43:05;;;;;;;6.43;1.83;;;19.50;99.90;;;;;;5113045;28;20035;-65
2023/10/14 08:45:36;;;;;;;6.30;2.00;;;19.40;99.90;;;;;;5113185;28;20070;-65
2023/10/14 08:48:03;;;;;;;6.75;1.80;;;19.30;99.90;;;;;;5111564;28;20077;-65
2023/10/14 08:50:34;;;;;;;7.15;2.42;;;19.30;99.90;;;;;;5112939;28;20076;-65
2023/10/14 08:53:22;;;;;;;10.07;2.53;;;19.30;99.90;;;;;;5112401;28;20028;-65
2023/10/14 08:55:48;;;;;;;5.20;1.80;;;19.30;99.90;;;;;;5112650;28;20031;-65
2023/10/14 08:58:14;;;;;;;7.18;2.20;;;19.30;99.90;;;;;;5112692;28;20554;-64
2023/10/14 09:00:43;;;;;;;9.63;2.30;;;19.20;99.90;;;;;;5112646;28;20048;-65
2023/10/14 09:03:12;;;;;;;6.13;2.10;;;19.20;99.90;;;;;;5112584;28;20426;-65
2023/10/14 09:05:44;;;;;;;6.75;1.90;;;19.30;99.90;;;;;;5112571;28;20023;-65
2023/10/14 09:08:14;;;;;;;6.40;1.92;;;19.30;99.90;;;;;;5112144;28;20169;-66
2023/10/14 09:10:39;;;;;;;7.18;1.80;;;19.30;99.90;;;;;;5112821;28;20030;-65
2023/10/14 09:13:19;;;;;;;5.78;1.60;;;19.40;99.90;;;;;;5112383;28;20027;-65
2023/10/14 09:15:44;;;;;;;3.90;1.40;;;19.50;99.90;;;;;;5111986;28;20042;-65
2023/10/14 09:18:17;;;;;;;6.93;1.65;;;19.50;99.90;;;;;;5112428;28;20486;-65
2023/10/14 09:20:44;;;;;;;4.70;1.50;;;19.60;99.90;;;;;;5112389;28;20027;-65
2023/10/14 09:23:27;;;;;;;4.95;1.60;;;19.70;99.90;;;;;;5112413;28;20034;-65
2023/10/14 09:25:55;;;;;;;5.32;1.70;;;19.70;99.90;;;;;;5112170;28;20020;-65
2023/10/14 09:28:25;;;;;;;5.82;1.50;;;19.70;99.90;;;;;;5112100;28;20177;-65
2023/10/14 09:30:53;;;;;;;5.15;1.60;;;19.80;99.90;;;;;;5111679;28;20607;-65
2023/10/14 09:33:28;;;;;;;6.72;1.50;;;20.00;99.90;;;;;;5112515;28;20051;-65
2023/10/14 09:36:03;;;;;;;4.15;1.30;;;20.20;99.90;;;;;;5112481;28;20027;-64
2023/10/14 09:38:32;;;;;;;3.85;1.30;;;20.40;99.90;;;;;;5111977;28;20036;-65
2023/10/14 09:41:03;;;;;;;5.05;1.58;;;20.40;99.90;;;;;;5111839;28;20035;-65
2023/10/14 09:43:30;;;;;;;4.68;1.50;;;20.50;99.90;;;;;;5112174;28;20023;-65
2023/10/14 09:45:57;;;;;;;5.70;1.70;;;20.40;99.90;;;;;;5111593;28;20032;-65
2023/10/14 09:48:31;;;;;;;5.63;1.90;;;20.40;99.90;;;;;;5111653;28;20122;-65
2023/10/14 09:51:00;;;;;;;4.18;1.45;;;20.50;99.90;;;;;;5111737;28;20319;-65
2023/10/14 09:53:35;;;;;;;5.25;1.70;;;20.40;99.90;;;;;;5093844;28;20031;-65
2023/10/14 09:56:07;;;;;;;4.57;1.20;;;20.30;99.90;;;;;;5111775;28;20027;-65
2023/10/14 09:58:41;;;;;;;2.60;1.17;;;20.40;99.90;;;;;;5111432;28;20486;-65
2023/10/14 10:01:07;;;;;;;;;;;20.30;99.90;;;;;;5111659;28;20031;-65
2023/10/14 10:03:39;;;;;;;3.67;1.23;;;20.30;99.90;;;;;;5111565;28;19904;-65
2023/10/14 10:06:20;;;;;;;2.72;1.50;;;20.40;99.90;;;;;;5111964;28;20497;-65
2023/10/14 10:09:08;;;;;;;4.80;1.40;;;20.30;99.90;;;;;;5111560;28;20177;-64
2023/10/14 10:11:36;;;;;;;5.28;1.30;;;20.20;99.90;;;;;;5111448;28;20027;-65
2023/10/14 10:14:12;;;;;;;4.60;1.35;;;20.20;99.90;;;;;;5111556;28;20490;-65
2023/10/14 10:16:41;;;;;;;3.53;1.00;;;20.10;99.90;;;;;;5111447;28;20024;-65
2023/10/14 10:19:08;;;;;;;3.65;1.27;;;20.00;99.90;;;;;;5111397;28;20028;-65
2023/10/14 10:21:43;;;;;;;1.77;0.95;;;19.90;99.90;;;;;;5111632;28;20031;-65
2023/10/14 10:24:23;;;;;;;5.32;1.63;;;19.90;99.90;;;;;;5092855;28;20126;-65
2023/10/14 10:27:03;;;;;;;3.15;1.20;;;20.00;99.90;;;;;;5111317;28;20031;-65
2023/10/14 10:29:41;;;;;;;4.22;1.20;;;20.00;99.90;;;;;;5110816;28;20415;-65
2023/10/14 10:32:09;;;;;;;4.20;1.30;;;20.00;99.90;;;;;;5111520;28;20031;-66
2023/10/14 10:35:07;;;;;;;5.38;1.38;;;20.00;99.90;;;;;;5111445;28;20038;-65
2023/10/14 10:37:46;;;;;;;3.28;1.30;;;20.00;99.90;;;;;;5111199;28;20076;-65
2023/10/14 10:40:13;;;;;;;3.08;1.20;;;20.00;99.90;;;;;;5111237;28;20020;-65
2023/10/14 10:42:47;;;;;;;6.45;1.30;;;19.90;99.90;;;;;;5111279;28;20485;-65
2023/10/14 10:45:22;;;;;;;5.40;1.60;;;19.90;99.90;;;;;;5111634;28;20429;-65
2023/10/14 10:48:03;;;;;;;4.60;1.42;;;19.80;99.90;;;;;;5111105;28;20032;-65
2023/10/14 10:50:36;;;;;;;4.72;1.30;;;19.80;99.90;;;;;;5111130;28;20024;-65
2023/10/14 10:53:08;;;;;;;4.10;1.40;;;19.80;99.90;;;;;;5111170;28;20553;-65
2023/10/14 10:55:42;;;;;;;3.45;1.33;;;19.80;99.90;;;;;;5111088;28;20026;-65
2023/10/14 10:58:12;;;;;;;3.67;1.20;;;19.80;99.90;;;;;;5111004;28;20387;-65
2023/10/14 11:00:41;;;;;;;5.05;1.45;;;19.90;99.90;;;;;;5111596;28;20024;-65
2023/10/14 11:03:07;;;;;;;4.32;1.35;;;19.90;99.90;;;;;;5111000;28;20023;-65
2023/10/14 11:05:36;;;;;;;3.53;1.30;;;20.00;99.90;;;;;;5111027;28;20047;-65
2023/10/14 11:08:05;;;;;;;4.50;1.42;;;20.20;99.90;;;;;;5111136;28;20036;-65
2023/10/14 11:10:38;;;;;;;5.32;1.30;;;20.40;99.90;;;;;;5111070;28;20027;-65
2023/10/14 11:13:07;;;;;;;4.93;1.40;;;20.40;99.90;;;;;;5114794;28;20505;-65
2023/10/14 11:15:34;;;;;;;5.93;1.60;;;20.60;99.90;;;;;;5114633;28;20250;-65
2023/10/14 11:18:01;;;;;;;6.13;1.50;;;20.60;99.90;;;;;;5114656;28;20111;-65
2023/10/14 11:20:32;;;;;;;6.90;1.42;;;20.60;99.90;;;;;;5114656;28;20016;-65
2023/10/14 11:22:59;;;;;;;4.75;1.42;;;20.70;99.90;;;;;;5114701;28;20106;-65
2023/10/14 11:25:30;;;;;;;5.72;1.80;;;20.80;99.90;;;;;;5114298;28;20555;-65
2023/10/14 11:27:57;;;;;;;5.25;1.50;;;20.80;99.90;;;;;;5114171;28;20108;-65
2023/10/14 11:30:28;;;;;;;4.40;1.40;;;20.90;99.90;;;;;;5114409;28;20058;-65
2023/10/14 11:32:56;;;;;;;3.47;1.40;;;20.80;99.90;;;;;;5114465;28;20031;-65
2023/10/14 11:35:28;;;;;;;4.05;1.45;;;20.90;99.90;;;;;;5114144;28;20034;-65
2023/10/14 11:38:00;;;;;;;5.38;1.70;;;20.80;99.90;;;;;;5113970;28;20024;-65
2023/10/14 11:40:37;;;;;;;4.07;1.27;;;21.00;99.90;;;;;;5114425;28;20051;-66
2023/10/14 11:43:07;;;;;;;4.63;1.80;;;21.10;99.90;;;;;;5114307;28;20028;-65
2023/10/14 11:45:33;;;;;;;4.50;1.50;;;21.00;99.90;;;;;;5114054;28;20389;-65
2023/10/14 11:48:01;;;;;;;3.80;1.30;;;20.80;99.90;;;;;;5114110;28;20118;-65
2023/10/14 11:50:32;;;;;;;4.30;1.42;;;20.60;99.90;;;;;;5112612;28;20039;-65
2023/10/14 11:52:58;;;;;;;5.20;1.45;;;20.60;99.90;;;;;;5114563;28;20042;-64
2023/10/14 11:55:27;;;;;;;3.55;1.20;;;20.50;99.90;;;;;;5113510;28;20020;-64
2023/10/14 11:57:58;;;;;;;3.55;1.20;;;20.40;99.90;;;;;;5113577;28;20089;-63
2023/10/14 12:00:23;;;;;;;5.03;1.25;;;20.40;99.90;;;;;;5113736;28;20046;-62
2023/10/14 12:02:52;;;;;;;5.35;1.20;;;20.50;99.90;;;;;;5112232;28;20506;-63
2023/10/14 12:05:19;;;;;;;4.63;1.80;;;20.40;99.90;;;;;;5113385;28;20100;-62
2023/10/14 12:07:49;;;;;;;4.38;1.35;;;20.40;99.90;;;;;;5112907;28;20046;-64
2023/10/14 12:10:17;;;;;;;3.28;1.10;;;20.40;99.90;;;;;;5112231;28;20038;-64
2023/10/14 12:12:52;;;;;;;3.72;1.20;;;20.50;99.90;;;;;;5112795;28;20016;-64
2023/10/14 12:15:20;;;;;;;3.67;1.20;;;20.60;99.90;;;;;;5113047;28;20497;-62
2023/10/14 12:17:46;;;;;;;3.25;1.10;;;20.50;99.90;;;;;;5113114;28;20443;-63
2023/10/14 12:20:12;;;;;;;3.55;1.10;;;20.60;99.90;;;;;;5113095;28;20027;-63
2023/10/14 12:22:39;;;;;;;3.47;1.00;;;20.70;99.90;;;;;;5111550;28;20082;-64
2023/10/14 12:25:05;;;;;;;2.20;1.00;;;20.80;99.90;;;;;;5112744;28;20032;-64
2023/10/14 12:27:33;;;;;;;4.47;1.02;;;20.70;99.90;;;;;;5111555;28;20422;-63
2023/10/14 12:30:00;;;;;;;2.30;0.90;;;20.60;99.90;;;;;;5072531;28;20545;-63
2023/10/14 12:32:32;;;;;;;3.17;1.13;;;20.60;99.90;;;;;;5072409;28;20048;-64
2023/10/14 12:35:01;;;;;;;3.58;1.20;;;20.60;99.90;;;;;;5092207;28;20123;-64
2023/10/14 12:37:28;;;;;;;2.55;0.93;;;20.60;99.90;;;;;;5092571;28;20024;-64
2023/10/14 12:40:11;;;;;;;3.35;1.20;;;20.70;99.90;;;;;;5092293;28;20277;-62
2023/10/14 12:42:47;;;;;;;6.10;1.20;;;20.80;99.90;;;;;;5092654;28;20077;-63
2023/10/14 12:45:14;;;;;;;4.38;1.17;;;20.90;99.90;;;;;;5092150;28;20035;-63
2023/10/14 12:47:47;;;;;;;5.10;1.30;;;21.10;99.90;;;;;;5092137;28;20072;-62
2023/10/14 12:50:19;;;;;;;5.05;1.20;;;21.10;99.90;;;;;;5092402;28;20406;-63
2023/10/14 12:53:04;;;;;;;3.35;1.00;;;21.20;99.90;;;;;;5092164;28;20051;-62
2023/10/14 12:55:30;;;;;;;4.97;1.20;;;21.20;99.90;;;;;;5092149;28;20387;-64
2023/10/14 12:58:00;;;;;;;2.80;1.00;;;21.20;99.90;;;;;;5092058;28;20048;-64
2023/10/14 13:00:29;;;;;;;3.45;1.20;;;21.30;99.90;;;;;;5091946;28;20398;-64
2023/10/14 13:02:59;;;;;;;3.45;1.10;;;21.30;99.90;;;;;;5091638;28;20033;-64
2023/10/14 13:05:28;;;;;;;5.40;1.40;;;21.50;99.90;;;;;;5091790;28;20032;-62
2023/10/14 13:07:55;;;;;;;4.35;1.20;;;21.50;99.90;;;;;;5091564;28;20040;-62
2023/10/14 13:10:25;;;;;;;3.28;1.30;;;21.50;99.90;;;;;;5092158;28;20115;-64
2023/10/14 13:12:57;;;;;;;3.33;1.23;;;21.50;99.90;;;;;;5091664;28;20032;-64
2023/10/14 13:15:30;;;;;;;3.45;1.20;;;21.60;99.90;;;;;;5091384;28;20618;-64
2023/10/14 13:18:05;;;;;;;2.97;1.50;;;21.90;99.90;;;;;;5091724;28;20024;-64
2023/10/14 13:20:32;;;;;;;3.63;1.20;;;21.70;99.90;;;;;;5091701;28;20043;-63
2023/10/14 13:23:03;;;;;;;4.32;1.40;;;21.50;99.90;;;;;;5091339;28;20027;-63
2023/10/14 13:25:32;;;;;;;4.18;1.05;;;21.30;99.90;;;;;;5091312;28;20115;-64
2023/10/14 13:27:58;;;;;;;3.65;1.00;;;21.30;99.90;;;;;;5091560;28;20056;-64
2023/10/14 13:30:23;;;;;;;2.80;1.20;;;21.20;99.90;;;;;;5091772;28;20367;-64